ADDS METAR Data INFO
IDs: Format: Raw Decoded Include TAF

Data at: 0945 UTC 19 Jul 2018

METAR for:KFWA (Fort Wayne Intl, IN, US)
Text:KFWA 190854Z 14003KT 10SM BKN300 17/14 A3006 RMK AO2 SLP173 T01670139 56002
Temperature: 16.7°C ( 62°F)
Dewpoint: 13.9°C ( 57°F) [RH = 84%]
Pressure (altimeter):30.06 inches Hg (1018.0 mb) [Sea level pressure: 1017.3 mb]
Winds:from the SE (140 degrees) at 3 MPH (3 knots; 1.5 m/s)
Visibility:10 or more sm (16+ km)
Ceiling:30000 feet AGL
Clouds: broken clouds at 30000 feet AGL